首页
METAR-TAF:

METAR-TAF

机场 :

杰克逊维尔, 佛罗里达州, 美国

纬度: 30-14-03N, 经度: 081-40-29W, 海拔: 6米

当前天气观测

该预报发布于14分钟前的16:53 UTC
风速11节,风向西北
温度 12°C
湿度 82%
气压 1015 hPa
能見度: 16.1公里
多云层高于1200英尺

METAR: KNIP 031653Z 31011KT 10SM BKN012 12/09 A2997 RMK AO2 SLP143 T01170089

时间: 12:07 (17:07 UTC)

预报

预报有效从03日的 17点(UTC)到 04日的 15点(UTC)
风速9节,风向北转西北
能见度10公里或以上
多云层高于1200英尺
多云层高于3000英尺
从 03日的 2100点(UTC)
风速7节,风向西北
能见度10公里或以上
多云层高于3000英尺
多云层高于5000英尺
从 04日的 0000点(UTC)
风速8节,风向
能见度10公里或以上
多云层高于3000英尺
多云层高于8000英尺
从 04日的 0400点(UTC)
风速6节,风向多变
能見度: 1700
少量云层高于5000英尺
散云层高于10000英尺

TAF: KNIP 0317/0415 33009KT 9999 BKN012 BKN030 QNH2996INS FM032100 32007KT 9999 BKN030 BKN050 QNH2994INS FM040000 01008KT 9999 BKN030 BKN080 QNH2995INS FM040400 VRB06KT 9999 FEW050 SCT100 QNH3002INS AMD 1700 T12/0321Z T09/0410Z FN20077

超过4000个机场的气象观测和天气预报(METAR&TAF报告)。

可查询的气象台以黄色和红色小点在地图上表示。

将鼠标移到小点上方,可查看气象台名称。

然后点击查看天气观测和预报。

如需切换地图:点击带黑十字的绿色按钮放大地图;点击带横线的绿色按钮缩小地图;或者点击绿色箭头查看邻近地区的地图。


METAR-TAF: